createdAt,value
2023-02-25T00:02:05.437Z,0.90
2023-02-25T00:04:19.652Z,0.90
2023-02-25T00:06:33.657Z,0.90
2023-02-25T00:08:49.758Z,0.90
2023-02-25T00:11:07.903Z,0.80
2023-02-25T00:13:21.357Z,0.90
2023-02-25T00:15:34.657Z,0.90
2023-02-25T00:17:50.014Z,0.80
2023-02-25T00:20:03.268Z,0.80
2023-02-25T00:22:16.476Z,0.60
2023-02-25T00:24:30.520Z,1.00
2023-02-25T00:26:43.938Z,0.80
2023-02-25T00:28:59.406Z,0.70
2023-02-25T00:31:16.206Z,1.00
2023-02-25T00:33:29.628Z,0.90
2023-02-25T00:35:44.702Z,0.80
2023-02-25T00:38:13.871Z,0.70
2023-02-25T00:40:28.376Z,1.00
2023-02-25T00:42:41.391Z,1.10
2023-02-25T00:44:54.751Z,0.90
2023-02-25T00:47:09.200Z,1.40
2023-02-25T00:49:32.444Z,1.00
2023-02-25T00:51:46.071Z,0.80
2023-02-25T00:54:00.231Z,1.30
2023-02-25T00:56:16.326Z,0.70
2023-02-25T00:58:29.517Z,0.80
2023-02-25T01:00:51.713Z,0.80
2023-02-25T01:03:05.310Z,0.90
2023-02-25T01:05:18.979Z,0.80
2023-02-25T01:07:32.947Z,0.90
2023-02-25T01:09:46.071Z,0.60
2023-02-25T01:11:59.146Z,0.80
2023-02-25T01:14:14.405Z,0.90
2023-02-25T01:16:29.473Z,0.80
2023-02-25T01:18:43.502Z,1.00
2023-02-25T01:20:58.861Z,0.90
2023-02-25T01:23:12.387Z,0.70
2023-02-25T01:25:26.687Z,1.00
2023-02-25T01:27:40.074Z,1.00
2023-02-25T01:29:53.566Z,0.70
2023-02-25T01:32:09.411Z,1.20
2023-02-25T01:34:24.110Z,0.80
2023-02-25T01:36:38.496Z,0.80
2023-02-25T01:38:51.597Z,0.90
2023-02-25T01:41:06.978Z,0.90
2023-02-25T01:43:22.253Z,0.80
2023-02-25T01:45:41.130Z,0.90
2023-02-25T01:47:58.191Z,1.00
2023-02-25T01:50:13.413Z,1.50
2023-02-25T01:52:28.383Z,0.80
2023-02-25T01:54:42.789Z,0.90
2023-02-25T01:56:59.435Z,0.80
2023-02-25T01:59:12.976Z,0.90
2023-02-25T02:01:29.941Z,1.00
2023-02-25T02:03:45.183Z,0.70
2023-02-25T02:06:10.849Z,1.20
2023-02-25T02:08:25.313Z,0.80
2023-02-25T02:10:39.801Z,0.90
2023-02-25T02:12:53.507Z,0.90
2023-02-25T02:15:10.004Z,1.10
2023-02-25T02:17:30.190Z,1.50
2023-02-25T02:20:12.858Z,1.70
2023-02-25T02:22:34.371Z,2.20
2023-02-25T02:25:30.799Z,2.00
2023-02-25T02:28:10.823Z,2.50
2023-02-25T02:30:43.671Z,1.30
2023-02-25T02:33:07.981Z,1.50
2023-02-25T02:35:30.870Z,1.10
2023-02-25T02:37:49.801Z,0.90
2023-02-25T02:40:18.212Z,1.10
2023-02-25T02:42:41.973Z,0.80
2023-02-25T02:45:02.745Z,0.90
2023-02-25T02:47:22.273Z,0.90
2023-02-25T02:49:40.594Z,1.00
2023-02-25T02:51:59.998Z,3.80
2023-02-25T02:54:17.216Z,4.30
2023-02-25T02:56:32.856Z,4.00
2023-02-25T02:58:50.816Z,2.10
2023-02-25T03:01:07.360Z,1.40
2023-02-25T03:03:24.144Z,1.10
2023-02-25T03:05:40.614Z,0.80
2023-02-25T03:08:01.637Z,0.90
2023-02-25T03:10:22.434Z,0.90
2023-02-25T03:12:39.987Z,1.10
2023-02-25T03:14:53.313Z,1.00
2023-02-25T03:17:12.512Z,0.80
2023-02-25T03:19:31.095Z,1.30
2023-02-25T03:21:47.405Z,1.00
2023-02-25T03:24:01.764Z,1.00
2023-02-25T03:26:24.179Z,1.70
2023-02-25T03:28:41.410Z,1.20
2023-02-25T03:31:01.247Z,1.30
2023-02-25T03:33:17.596Z,0.90
2023-02-25T03:35:32.960Z,1.00
2023-02-25T03:37:51.716Z,1.10
2023-02-25T03:40:12.423Z,1.00
2023-02-25T03:42:30.982Z,1.70
2023-02-25T03:44:49.223Z,3.50
2023-02-25T03:47:03.564Z,1.40
2023-02-25T03:49:24.473Z,1.10
2023-02-25T03:51:41.054Z,1.10
2023-02-25T03:53:54.353Z,1.20
2023-02-25T03:56:15.294Z,0.90
2023-02-25T03:58:30.570Z,1.30
2023-02-25T04:00:47.681Z,2.30
2023-02-25T04:03:01.730Z,1.90
2023-02-25T04:05:15.521Z,3.90
2023-02-25T04:07:28.527Z,5.30
2023-02-25T04:09:44.765Z,4.70
2023-02-25T04:11:58.416Z,5.30
2023-02-25T04:14:12.148Z,5.00
2023-02-25T04:16:26.331Z,2.00
2023-02-25T04:18:41.139Z,1.60
2023-02-25T04:20:54.085Z,1.20
2023-02-25T04:23:07.235Z,1.10
2023-02-25T04:25:20.284Z,1.60
2023-02-25T04:27:33.776Z,1.90
2023-02-25T04:29:46.849Z,1.30
2023-02-25T04:32:00.018Z,1.00
2023-02-25T04:34:13.797Z,1.20
2023-02-25T04:36:37.398Z,1.80
2023-02-25T04:38:50.875Z,2.50
2023-02-25T04:41:04.014Z,1.30
2023-02-25T04:43:17.158Z,1.40
2023-02-25T04:45:30.677Z,2.10
2023-02-25T04:47:44.130Z,2.70
2023-02-25T04:49:57.282Z,2.90
2023-02-25T04:52:10.461Z,3.20
2023-02-25T04:54:24.328Z,1.00
2023-02-25T04:56:37.827Z,1.40
2023-02-25T04:58:51.059Z,1.70
2023-02-25T05:01:06.835Z,2.30
2023-02-25T05:03:20.585Z,2.30
2023-02-25T05:05:33.710Z,2.50
2023-02-25T05:07:46.719Z,2.50
2023-02-25T05:10:00.251Z,2.00
2023-02-25T05:12:14.194Z,6.90
2023-02-25T05:14:27.841Z,4.10
2023-02-25T05:16:41.918Z,1.60
2023-02-25T05:18:55.791Z,1.90
2023-02-25T05:21:13.430Z,1.70
2023-02-25T05:23:33.036Z,1.60
2023-02-25T05:25:47.405Z,1.70
2023-02-25T05:28:00.478Z,2.00
2023-02-25T05:30:18.711Z,1.60
2023-02-25T05:32:33.401Z,1.60
2023-02-25T05:34:46.644Z,1.60
2023-02-25T05:36:59.710Z,1.40
2023-02-25T05:39:16.121Z,1.40
2023-02-25T05:41:29.842Z,1.20
2023-02-25T05:43:43.979Z,10.50
2023-02-25T05:46:02.749Z,12.10
2023-02-25T05:48:16.075Z,11.20
2023-02-25T05:50:29.740Z,31.00
2023-02-25T05:52:44.929Z,14.60
2023-02-25T05:54:59.104Z,12.30
2023-02-25T05:57:13.119Z,5.90
2023-02-25T05:59:26.279Z,5.70
2023-02-25T06:01:39.916Z,6.60
2023-02-25T06:03:54.768Z,3.00
2023-02-25T06:06:08.174Z,2.50
2023-02-25T06:08:21.439Z,2.60
2023-02-25T06:10:39.428Z,2.10
2023-02-25T06:12:52.410Z,2.20
2023-02-25T06:15:05.739Z,1.60
2023-02-25T06:17:18.706Z,2.40
2023-02-25T06:19:32.405Z,2.20
2023-02-25T06:21:45.439Z,4.10
2023-02-25T06:23:58.776Z,4.60
2023-02-25T06:26:14.504Z,4.00
2023-02-25T06:28:27.665Z,4.10
2023-02-25T06:30:41.021Z,3.40
2023-02-25T06:32:54.406Z,2.80
2023-02-25T06:35:08.035Z,2.70
2023-02-25T06:37:20.882Z,2.30
2023-02-25T06:39:33.957Z,2.30
2023-02-25T06:41:46.988Z,3.90
2023-02-25T06:43:59.878Z,5.40
2023-02-25T06:46:15.560Z,2.20
2023-02-25T06:48:29.237Z,1.50
2023-02-25T06:50:44.764Z,1.50
2023-02-25T06:52:57.717Z,2.40
2023-02-25T06:55:11.958Z,6.80
2023-02-25T06:57:25.340Z,2.80
2023-02-25T06:59:38.829Z,2.80
2023-02-25T07:01:52.028Z,5.50
2023-02-25T07:04:05.442Z,3.80
2023-02-25T07:06:19.365Z,4.30
2023-02-25T07:08:32.694Z,2.60
2023-02-25T07:10:46.288Z,2.00
2023-02-25T07:13:00.137Z,2.50
2023-02-25T07:15:15.267Z,1.70
2023-02-25T07:17:28.194Z,3.90
2023-02-25T07:19:41.794Z,4.80
2023-02-25T07:21:54.935Z,2.70
2023-02-25T07:24:08.195Z,1.90
2023-02-25T07:26:21.875Z,1.90
2023-02-25T07:28:35.785Z,2.00
2023-02-25T07:30:49.401Z,4.10
2023-02-25T07:33:03.110Z,3.30
2023-02-25T07:35:17.204Z,4.90
2023-02-25T07:37:30.775Z,5.40
2023-02-25T07:39:46.267Z,7.00
2023-02-25T07:42:00.688Z,4.40
2023-02-25T07:44:14.617Z,8.10
2023-02-25T07:46:27.922Z,3.00
2023-02-25T07:48:41.688Z,2.70
2023-02-25T07:50:55.030Z,1.70
2023-02-25T07:53:08.009Z,2.00
2023-02-25T07:55:21.252Z,1.80
2023-02-25T07:57:34.530Z,1.70
2023-02-25T07:59:49.220Z,2.00
2023-02-25T08:02:02.229Z,3.70
2023-02-25T08:04:15.559Z,2.70
2023-02-25T08:06:29.420Z,4.30
2023-02-25T08:08:43.261Z,2.60
2023-02-25T08:10:56.393Z,1.40
2023-02-25T08:13:09.543Z,1.80
2023-02-25T08:15:25.821Z,1.50
2023-02-25T08:17:39.828Z,1.90
2023-02-25T08:19:53.689Z,2.40
2023-02-25T08:22:06.898Z,3.20
2023-02-25T08:24:21.928Z,2.70
2023-02-25T08:26:35.610Z,4.90
2023-02-25T08:28:49.293Z,6.80
2023-02-25T08:31:03.854Z,4.30
2023-02-25T08:33:19.460Z,1.30
2023-02-25T08:35:36.963Z,1.60
2023-02-25T08:37:53.506Z,1.10
2023-02-25T08:40:11.259Z,1.70
2023-02-25T08:42:24.629Z,1.90
2023-02-25T08:44:38.039Z,2.90
2023-02-25T08:46:52.084Z,2.30
2023-02-25T08:49:06.545Z,1.60
2023-02-25T08:51:21.233Z,5.10
2023-02-25T08:53:34.657Z,5.80
2023-02-25T08:55:48.586Z,3.80
2023-02-25T08:58:03.436Z,6.70
2023-02-25T09:00:19.494Z,4.60
2023-02-25T09:02:33.316Z,3.50
2023-02-25T09:04:46.925Z,2.00
2023-02-25T09:07:00.154Z,2.40
2023-02-25T09:09:14.623Z,2.00
2023-02-25T09:11:28.871Z,1.70
2023-02-25T09:13:42.021Z,1.90
2023-02-25T09:16:02.316Z,1.60
2023-02-25T09:18:16.200Z,2.10
2023-02-25T09:20:30.212Z,1.50
2023-02-25T09:22:45.025Z,1.50
2023-02-25T09:24:59.827Z,1.60
2023-02-25T09:27:13.819Z,1.50
2023-02-25T09:29:28.025Z,1.70
2023-02-25T09:31:41.958Z,1.80
2023-02-25T09:33:56.073Z,2.00
2023-02-25T09:36:13.610Z,1.70
2023-02-25T09:38:26.822Z,1.70
2023-02-25T09:40:49.175Z,1.50
2023-02-25T09:43:13.100Z,1.60
2023-02-25T09:45:30.580Z,1.50
2023-02-25T09:47:51.784Z,1.70
2023-02-25T09:50:08.779Z,1.60
2023-02-25T09:52:26.283Z,1.20
2023-02-25T09:54:46.078Z,1.40
2023-02-25T09:57:02.274Z,1.60
2023-02-25T09:59:23.369Z,1.60
2023-02-25T10:01:41.557Z,2.30
2023-02-25T10:04:03.086Z,1.60
2023-02-25T10:06:22.517Z,2.00
2023-02-25T10:08:45.598Z,1.40
2023-02-25T10:11:10.654Z,1.40
2023-02-25T10:13:35.399Z,1.30
2023-02-25T10:16:04.920Z,1.40
2023-02-25T10:18:47.769Z,1.50
2023-02-25T10:21:15.408Z,1.40
2023-02-25T10:23:54.788Z,1.30
2023-02-25T10:26:21.040Z,1.20
2023-02-25T10:28:35.079Z,1.10
2023-02-25T10:30:58.666Z,1.80
2023-02-25T10:33:19.195Z,1.40
2023-02-25T10:35:36.288Z,1.50
2023-02-25T10:37:49.888Z,1.70
2023-02-25T10:40:06.701Z,1.10
2023-02-25T10:42:20.679Z,1.30
2023-02-25T10:44:34.127Z,1.80
2023-02-25T10:46:55.808Z,1.50
2023-02-25T10:49:22.269Z,1.00
2023-02-25T10:51:36.189Z,1.20
2023-02-25T10:54:08.664Z,1.70
2023-02-25T10:56:22.371Z,1.50
2023-02-25T10:58:48.406Z,1.60
2023-02-25T11:01:15.185Z,1.70
2023-02-25T11:03:33.822Z,1.80
2023-02-25T11:05:48.601Z,1.50
2023-02-25T11:08:01.848Z,1.80
2023-02-25T11:10:21.637Z,1.50
2023-02-25T11:12:43.471Z,1.60
2023-02-25T11:14:57.085Z,1.90
2023-02-25T11:17:16.709Z,1.70
2023-02-25T11:19:33.392Z,1.50
2023-02-25T11:21:48.325Z,2.30
2023-02-25T11:24:08.076Z,1.80
2023-02-25T11:26:31.443Z,1.70
2023-02-25T11:28:48.190Z,1.60
2023-02-25T11:31:08.343Z,1.40
2023-02-25T11:33:31.758Z,1.50
2023-02-25T11:35:45.699Z,1.60
2023-02-25T11:37:59.380Z,1.50
2023-02-25T11:40:28.893Z,1.30
2023-02-25T11:42:44.726Z,2.50
2023-02-25T11:45:05.846Z,1.70
2023-02-25T11:47:28.695Z,2.00
2023-02-25T11:50:03.462Z,1.50
2023-02-25T11:52:25.292Z,1.80
2023-02-25T11:54:46.947Z,1.70
2023-02-25T11:57:07.205Z,1.80
2023-02-25T11:59:40.733Z,1.70
2023-02-25T12:02:10.345Z,1.90
2023-02-25T12:04:49.158Z,2.20
2023-02-25T12:07:25.892Z,1.40
2023-02-25T12:10:10.782Z,1.50
2023-02-25T12:13:04.480Z,1.50
2023-02-25T12:16:10.061Z,1.90
2023-02-25T12:18:46.117Z,1.20
2023-02-25T12:21:42.973Z,1.70
2023-02-25T12:24:29.807Z,1.10
2023-02-25T12:27:03.423Z,1.50
2023-02-25T12:29:36.032Z,1.80
2023-02-25T12:32:19.636Z,1.60
2023-02-25T12:35:08.335Z,1.60
2023-02-25T12:37:54.504Z,1.40
2023-02-25T12:40:33.744Z,1.90
2023-02-25T12:43:14.992Z,1.60
2023-02-25T12:46:09.312Z,1.50
2023-02-25T12:48:50.240Z,1.50
2023-02-25T12:51:25.846Z,1.30
2023-02-25T12:53:56.099Z,1.40
2023-02-25T12:56:28.258Z,1.30
2023-02-25T12:59:11.854Z,1.80
2023-02-25T13:01:46.216Z,1.60
2023-02-25T13:04:20.287Z,1.50
2023-02-25T13:06:56.729Z,1.30
2023-02-25T13:09:42.586Z,1.50
2023-02-25T13:12:12.063Z,2.10
2023-02-25T13:14:59.536Z,1.80
2023-02-25T13:17:29.325Z,1.20
2023-02-25T13:20:20.289Z,1.60
2023-02-25T13:22:53.784Z,1.50
2023-02-25T13:25:16.314Z,1.40
2023-02-25T13:27:44.984Z,1.30
2023-02-25T13:30:39.446Z,1.30
2023-02-25T13:33:06.754Z,1.70
2023-02-25T13:35:31.195Z,1.40
2023-02-25T13:37:53.753Z,1.50
2023-02-25T13:40:27.331Z,1.60
2023-02-25T13:43:11.519Z,1.30
2023-02-25T13:45:59.866Z,1.60
2023-02-25T13:48:34.082Z,1.50
2023-02-25T13:51:05.836Z,1.20
2023-02-25T13:53:54.285Z,1.60
2023-02-25T13:56:27.445Z,1.80
2023-02-25T13:59:04.344Z,1.30
2023-02-25T14:01:52.675Z,1.70
2023-02-25T14:04:38.676Z,1.50
2023-02-25T14:09:50.486Z,1.20
2023-02-25T14:12:14.470Z,1.20
2023-02-25T14:14:53.200Z,1.00
2023-02-25T14:17:27.208Z,1.60
2023-02-25T14:19:50.133Z,1.30
2023-02-25T14:22:23.706Z,1.20
2023-02-25T14:24:43.788Z,1.20
2023-02-25T14:27:08.050Z,1.30
2023-02-25T14:29:32.900Z,1.30
2023-02-25T14:32:01.444Z,1.40
2023-02-25T14:34:42.677Z,1.30
2023-02-25T14:37:14.785Z,1.30
2023-02-25T14:39:42.771Z,1.20
2023-02-25T14:42:11.847Z,1.60
2023-02-25T14:44:33.529Z,1.30
2023-02-25T14:46:52.052Z,1.30
2023-02-25T14:49:10.103Z,1.20
2023-02-25T14:51:46.313Z,1.00
2023-02-25T14:54:27.904Z,1.50
2023-02-25T14:57:01.401Z,1.40
2023-02-25T14:59:48.680Z,1.40
2023-02-25T15:02:35.145Z,1.30
2023-02-25T15:05:34.792Z,2.10
2023-02-25T15:08:12.976Z,1.60
2023-02-25T15:10:56.860Z,1.70
2023-02-25T15:13:38.522Z,1.70
2023-02-25T15:16:25.850Z,1.40
2023-02-25T15:19:08.620Z,1.40
2023-02-25T15:21:45.599Z,2.10
2023-02-25T15:24:00.263Z,1.60
2023-02-25T15:26:28.117Z,1.40
2023-02-25T15:28:51.391Z,1.50
2023-02-25T15:33:37.787Z,1.50
2023-02-25T15:36:03.352Z,1.20
2023-02-25T15:38:25.415Z,1.40
2023-02-25T15:40:54.388Z,1.20
2023-02-25T15:43:28.198Z,1.10
2023-02-25T15:45:46.912Z,1.30
2023-02-25T15:48:32.871Z,1.60
2023-02-25T15:51:01.225Z,1.00
2023-02-25T15:53:37.301Z,1.20
2023-02-25T15:55:53.532Z,1.30
2023-02-25T15:58:27.143Z,1.00
2023-02-25T16:01:01.269Z,1.30
2023-02-25T16:03:41.673Z,1.40
2023-02-25T16:05:54.951Z,1.20
2023-02-25T16:08:21.054Z,1.30
2023-02-25T16:10:39.528Z,1.70
2023-02-25T16:12:56.473Z,1.30
2023-02-25T16:15:11.262Z,1.20
2023-02-25T16:17:27.061Z,1.40
2023-02-25T16:19:43.253Z,1.10
2023-02-25T16:22:00.975Z,1.50
2023-02-25T16:24:16.372Z,1.40
2023-02-25T16:26:59.541Z,1.60
2023-02-25T16:29:38.832Z,1.40
2023-02-25T16:32:01.819Z,1.40
2023-02-25T16:34:25.012Z,1.00
2023-02-25T16:39:08.933Z,1.20
2023-02-25T16:41:30.265Z,1.10
2023-02-25T16:43:50.348Z,1.00
2023-02-25T16:46:06.154Z,1.20
2023-02-25T16:48:26.662Z,1.20
2023-02-25T16:50:40.263Z,1.40
2023-02-25T16:52:54.892Z,1.20
2023-02-25T16:55:12.846Z,1.30
2023-02-25T16:57:28.780Z,1.60
2023-02-25T16:59:42.577Z,1.20
2023-02-25T17:02:05.057Z,1.30
2023-02-25T17:04:22.976Z,1.20
2023-02-25T17:06:36.966Z,1.30
2023-02-25T17:08:53.572Z,1.40
2023-02-25T17:11:08.624Z,1.10
2023-02-25T17:13:26.597Z,1.10
2023-02-25T17:15:41.920Z,1.20
2023-02-25T17:17:57.605Z,1.40
2023-02-25T17:20:18.352Z,1.50
2023-02-25T17:22:32.238Z,1.90
2023-02-25T17:24:45.372Z,1.10
2023-02-25T17:26:59.474Z,1.10
2023-02-25T17:29:17.331Z,1.30
2023-02-25T17:31:32.616Z,1.80
2023-02-25T17:33:53.966Z,1.80
2023-02-25T17:36:12.916Z,1.90
2023-02-25T17:38:27.681Z,1.70
2023-02-25T17:40:41.171Z,1.80
2023-02-25T17:43:14.195Z,2.00
2023-02-25T17:45:51.648Z,1.80
2023-02-25T17:48:05.101Z,1.60
2023-02-25T17:50:38.367Z,2.00
2023-02-25T17:52:54.317Z,4.20
2023-02-25T17:55:10.809Z,5.90
2023-02-25T17:57:26.600Z,5.30
2023-02-25T17:59:43.544Z,8.00
2023-02-25T18:02:00.136Z,4.40
2023-02-25T18:04:24.238Z,5.60
2023-02-25T18:06:47.670Z,3.70
2023-02-25T18:09:02.920Z,11.70
2023-02-25T18:11:28.819Z,3.60
2023-02-25T18:13:42.809Z,4.10
2023-02-25T18:16:28.596Z,3.00
2023-02-25T18:18:43.901Z,2.90
2023-02-25T18:21:04.284Z,2.90
2023-02-25T18:23:28.939Z,2.50
2023-02-25T18:25:43.499Z,3.50
2023-02-25T18:27:59.502Z,3.20
2023-02-25T18:30:26.021Z,10.20
2023-02-25T18:32:40.511Z,2.60
2023-02-25T18:34:53.936Z,2.30
2023-02-25T18:37:07.496Z,4.00
2023-02-25T18:39:22.122Z,2.50
2023-02-25T18:41:36.698Z,2.70
2023-02-25T18:43:50.583Z,2.30
2023-02-25T18:46:04.225Z,2.80
2023-02-25T18:48:18.559Z,2.80
2023-02-25T18:50:33.563Z,4.90
2023-02-25T18:52:47.242Z,4.70
2023-02-25T18:55:00.818Z,15.50
2023-02-25T18:57:25.637Z,6.90
2023-02-25T18:59:39.318Z,12.20
2023-02-25T19:01:53.069Z,3.70
2023-02-25T19:04:06.441Z,3.40
2023-02-25T19:06:19.902Z,2.10
2023-02-25T19:08:33.370Z,2.30
2023-02-25T19:10:50.795Z,2.30
2023-02-25T19:13:08.081Z,2.40
2023-02-25T19:15:23.956Z,1.60
2023-02-25T19:17:37.596Z,2.30
2023-02-25T19:19:51.248Z,2.40
2023-02-25T19:22:04.698Z,2.50
2023-02-25T19:24:18.988Z,2.00
2023-02-25T19:26:32.326Z,2.10
2023-02-25T19:28:46.097Z,2.20
2023-02-25T19:30:59.806Z,1.90
2023-02-25T19:33:14.512Z,1.50
2023-02-25T19:35:27.966Z,1.80
2023-02-25T19:37:42.817Z,1.80
2023-02-25T19:39:56.713Z,1.30
2023-02-25T19:42:10.659Z,1.60
2023-02-25T19:44:24.226Z,2.40
2023-02-25T19:46:37.387Z,1.90
2023-02-25T19:48:50.834Z,1.60
2023-02-25T19:51:08.546Z,1.90
2023-02-25T19:53:22.430Z,1.80
2023-02-25T19:55:40.319Z,1.70
2023-02-25T19:57:54.143Z,1.50
2023-02-25T20:00:08.970Z,1.40
2023-02-25T20:02:25.836Z,2.40
2023-02-25T20:04:39.699Z,1.70
2023-02-25T20:06:53.312Z,1.80
2023-02-25T20:09:07.697Z,2.00
2023-02-25T20:11:21.176Z,1.30
2023-02-25T20:13:34.691Z,2.00
2023-02-25T20:15:48.382Z,2.00
2023-02-25T20:18:02.132Z,1.90
2023-02-25T20:20:17.566Z,1.40
2023-02-25T20:22:31.023Z,2.60
2023-02-25T20:24:44.566Z,1.60
2023-02-25T20:26:58.491Z,1.80
2023-02-25T20:29:12.450Z,1.30
2023-02-25T20:31:27.324Z,2.20
2023-02-25T20:33:41.635Z,1.90
2023-02-25T20:35:55.759Z,2.30
2023-02-25T20:38:19.466Z,2.00
2023-02-25T20:40:33.705Z,1.90
2023-02-25T20:42:47.825Z,1.80
2023-02-25T20:45:03.214Z,1.80
2023-02-25T20:47:21.771Z,1.50
2023-02-25T20:49:37.197Z,2.00
2023-02-25T20:51:52.986Z,1.70
2023-02-25T20:54:06.878Z,1.60
2023-02-25T20:56:24.857Z,1.30
2023-02-25T20:58:38.373Z,2.20
2023-02-25T21:00:51.775Z,1.40
2023-02-25T21:03:05.577Z,2.50
2023-02-25T21:05:19.711Z,2.00
2023-02-25T21:07:34.011Z,1.90
2023-02-25T21:09:50.626Z,1.60
2023-02-25T21:12:05.061Z,2.50
2023-02-25T21:14:18.191Z,2.30
2023-02-25T21:16:33.542Z,2.70
2023-02-25T21:18:47.640Z,1.70
2023-02-25T21:21:06.372Z,1.50
2023-02-25T21:23:20.315Z,1.60
2023-02-25T21:25:33.821Z,1.50
2023-02-25T21:27:47.320Z,1.80
2023-02-25T21:30:01.169Z,1.80
2023-02-25T21:32:14.612Z,1.60
2023-02-25T21:34:27.903Z,1.60
2023-02-25T21:36:41.450Z,1.90
2023-02-25T21:38:55.002Z,2.00
2023-02-25T21:41:14.428Z,2.00
2023-02-25T21:43:28.501Z,2.00
2023-02-25T21:45:42.480Z,1.80
2023-02-25T21:47:56.291Z,2.00
2023-02-25T21:50:10.905Z,1.40
2023-02-25T21:52:24.692Z,1.80
2023-02-25T21:54:41.186Z,1.80
2023-02-25T21:56:55.372Z,1.30
2023-02-25T21:59:10.810Z,2.00
2023-02-25T22:01:25.856Z,1.80
2023-02-25T22:03:39.266Z,1.80
2023-02-25T22:05:53.204Z,2.00
2023-02-25T22:08:06.812Z,2.40
2023-02-25T22:10:21.415Z,2.40
2023-02-25T22:12:36.338Z,1.50
2023-02-25T22:14:49.775Z,1.80
2023-02-25T22:17:04.075Z,2.00
2023-02-25T22:19:17.905Z,1.70
2023-02-25T22:21:33.511Z,2.10
2023-02-25T22:23:49.581Z,2.30
2023-02-25T22:26:07.734Z,3.00
2023-02-25T22:28:21.407Z,2.20
2023-02-25T22:30:34.795Z,1.80
2023-02-25T22:32:48.399Z,1.80
2023-02-25T22:35:01.626Z,2.10
2023-02-25T22:37:15.003Z,2.40
2023-02-25T22:39:28.660Z,1.60
2023-02-25T22:41:45.942Z,1.80
2023-02-25T22:44:00.660Z,1.30
2023-02-25T22:46:16.365Z,2.00
2023-02-25T22:48:29.825Z,1.70
2023-02-25T22:50:45.611Z,1.50
2023-02-25T22:52:59.062Z,1.90
2023-02-25T22:55:14.134Z,2.60
2023-02-25T22:57:27.733Z,2.60
2023-02-25T22:59:42.142Z,3.10
2023-02-25T23:01:55.742Z,2.30
2023-02-25T23:04:10.121Z,2.80
2023-02-25T23:06:37.490Z,2.30
2023-02-25T23:08:56.379Z,2.80
2023-02-25T23:11:16.962Z,1.60
2023-02-25T23:13:30.810Z,2.20
2023-02-25T23:15:45.681Z,1.80
2023-02-25T23:18:04.626Z,2.20
2023-02-25T23:20:19.407Z,2.20
2023-02-25T23:22:34.998Z,2.30
2023-02-25T23:24:48.208Z,2.70
2023-02-25T23:27:02.089Z,2.10
2023-02-25T23:29:16.291Z,2.20
2023-02-25T23:31:32.063Z,2.10
2023-02-25T23:33:46.120Z,2.30
2023-02-25T23:35:59.850Z,2.10
2023-02-25T23:38:13.299Z,1.50
2023-02-25T23:40:27.014Z,3.90
2023-02-25T23:42:40.449Z,2.80
2023-02-25T23:44:53.878Z,1.60
2023-02-25T23:47:07.094Z,2.60
2023-02-25T23:49:21.754Z,2.20
2023-02-25T23:51:35.627Z,3.50
2023-02-25T23:53:48.845Z,2.10
2023-02-25T23:56:06.491Z,2.10
2023-02-25T23:58:19.714Z,2.00
